createdAt,value
2023-03-24T00:00:12.757Z,17.90
2023-03-24T00:02:42.670Z,17.90
2023-03-24T00:05:12.721Z,17.90
2023-03-24T00:07:41.954Z,17.90
2023-03-24T00:10:12.605Z,17.80
2023-03-24T00:12:42.801Z,17.80
2023-03-24T00:15:13.917Z,17.80
2023-03-24T00:17:42.343Z,17.80
2023-03-24T00:20:15.521Z,17.80
2023-03-24T00:22:49.703Z,17.80
2023-03-24T00:25:19.765Z,17.70
2023-03-24T00:27:50.099Z,17.70
2023-03-24T00:30:20.200Z,17.70
2023-03-24T00:32:48.990Z,17.70
2023-03-24T00:35:19.100Z,17.60
2023-03-24T00:37:47.900Z,17.60
2023-03-24T00:40:18.518Z,17.60
2023-03-24T00:42:49.783Z,17.60
2023-03-24T00:45:20.593Z,17.50
2023-03-24T00:47:50.178Z,17.50
2023-03-24T00:50:20.862Z,17.50
2023-03-24T00:52:49.671Z,17.50
2023-03-24T00:55:19.010Z,17.40
2023-03-24T00:57:51.279Z,17.40
2023-03-24T01:00:22.470Z,17.40
2023-03-24T01:02:53.825Z,17.30
2023-03-24T01:05:22.865Z,17.30
2023-03-24T01:07:52.794Z,17.30
2023-03-24T01:10:26.478Z,17.30
2023-03-24T01:12:58.891Z,17.30
2023-03-24T01:15:30.014Z,17.30
2023-03-24T01:17:58.612Z,17.30
2023-03-24T01:20:27.406Z,17.30
2023-03-24T01:22:55.901Z,17.20
2023-03-24T01:25:25.946Z,17.30
2023-03-24T01:27:56.198Z,17.20
2023-03-24T01:30:27.160Z,17.20
2023-03-24T01:32:55.815Z,17.20
2023-03-24T01:35:28.910Z,17.20
2023-03-24T01:37:57.892Z,17.20
2023-03-24T01:40:28.749Z,17.20
2023-03-24T01:42:59.377Z,17.20
2023-03-24T01:46:00.683Z,17.20
2023-03-24T01:48:34.749Z,17.20
2023-03-24T01:51:07.333Z,17.20
2023-03-24T01:53:39.474Z,17.20
2023-03-24T01:56:11.426Z,17.20
2023-03-24T01:58:45.077Z,17.10
2023-03-24T02:01:13.923Z,17.20
2023-03-24T02:03:43.157Z,17.10
2023-03-24T02:06:12.448Z,17.20
2023-03-24T02:08:45.668Z,17.10
2023-03-24T02:11:14.327Z,17.10
2023-03-24T02:13:44.653Z,17.10
2023-03-24T02:16:23.880Z,17.10
2023-03-24T02:19:12.712Z,17.10
2023-03-24T02:22:20.998Z,17.00
2023-03-24T02:25:16.565Z,17.00
2023-03-24T02:28:10.785Z,17.00
2023-03-24T02:31:06.588Z,17.00
2023-03-24T02:34:09.791Z,17.00
2023-03-24T02:36:57.546Z,17.00
2023-03-24T02:39:48.415Z,17.00
2023-03-24T02:42:32.451Z,17.00
2023-03-24T02:45:11.586Z,17.00
2023-03-24T02:47:51.216Z,16.90
2023-03-24T02:50:27.376Z,16.90
2023-03-24T02:53:06.609Z,16.90
2023-03-24T02:55:42.101Z,16.90
2023-03-24T02:58:15.977Z,16.90
2023-03-24T03:00:48.370Z,16.90
2023-03-24T03:03:25.171Z,16.90
2023-03-24T03:05:58.891Z,16.90
2023-03-24T03:08:32.572Z,16.90
2023-03-24T03:11:06.872Z,16.90
2023-03-24T03:13:39.043Z,16.90
2023-03-24T03:16:14.244Z,16.90
2023-03-24T03:18:50.211Z,16.80
2023-03-24T03:21:22.579Z,16.80
2023-03-24T03:23:55.710Z,16.80
2023-03-24T03:26:28.743Z,16.80
2023-03-24T03:29:00.895Z,16.80
2023-03-24T03:31:32.697Z,16.80
2023-03-24T03:34:13.396Z,16.80
2023-03-24T03:36:49.380Z,16.80
2023-03-24T03:39:24.415Z,16.80
2023-03-24T03:41:54.854Z,16.80
2023-03-24T03:44:23.320Z,16.70
2023-03-24T03:46:51.872Z,16.70
2023-03-24T03:49:20.517Z,16.70
2023-03-24T03:51:49.111Z,16.70
2023-03-24T03:54:19.033Z,16.70
2023-03-24T03:56:50.091Z,16.70
2023-03-24T03:59:31.231Z,16.70
2023-03-24T04:01:59.791Z,16.70
2023-03-24T04:05:05.725Z,16.70
2023-03-24T04:07:41.689Z,16.70
2023-03-24T04:10:21.489Z,16.60
2023-03-24T04:13:09.421Z,16.70
2023-03-24T04:15:47.146Z,16.60
2023-03-24T04:18:33.420Z,16.60
2023-03-24T04:21:15.682Z,16.60
2023-03-24T04:23:54.453Z,16.60
2023-03-24T04:26:28.632Z,16.60
2023-03-24T04:29:09.239Z,16.60
2023-03-24T04:31:44.578Z,16.60
2023-03-24T04:34:20.858Z,16.50
2023-03-24T04:36:55.560Z,16.50
2023-03-24T04:39:28.413Z,16.50
2023-03-24T04:41:58.912Z,16.60
2023-03-24T04:44:28.756Z,16.60
2023-03-24T04:47:01.268Z,16.60
2023-03-24T04:49:29.906Z,16.50
2023-03-24T04:51:58.393Z,16.50
2023-03-24T04:54:26.763Z,16.50
2023-03-24T04:56:57.262Z,16.50
2023-03-24T04:59:26.026Z,16.50
2023-03-24T05:01:54.411Z,16.50
2023-03-24T05:04:25.748Z,16.50
2023-03-24T05:06:54.175Z,16.50
2023-03-24T05:09:24.946Z,16.50
2023-03-24T05:11:53.304Z,16.50
2023-03-24T05:14:21.867Z,16.50
2023-03-24T05:16:50.252Z,16.50
2023-03-24T05:19:18.677Z,16.50
2023-03-24T05:21:48.736Z,16.50
2023-03-24T05:24:17.109Z,16.50
2023-03-24T05:26:45.403Z,16.40
2023-03-24T05:29:13.752Z,16.50
2023-03-24T05:31:42.178Z,16.50
2023-03-24T05:34:10.926Z,16.40
2023-03-24T05:36:40.145Z,16.40
2023-03-24T05:39:09.908Z,16.50
2023-03-24T05:41:38.278Z,16.40
2023-03-24T05:44:06.828Z,16.40
2023-03-24T05:46:35.194Z,16.50
2023-03-24T05:49:03.540Z,16.40
2023-03-24T05:51:32.033Z,16.40
2023-03-24T05:54:00.382Z,16.50
2023-03-24T05:56:31.460Z,16.50
2023-03-24T05:58:59.908Z,16.50
2023-03-24T06:01:29.028Z,16.50
2023-03-24T06:03:57.547Z,16.50
2023-03-24T06:06:26.397Z,16.50
2023-03-24T06:08:55.640Z,16.50
2023-03-24T06:11:24.018Z,16.50
2023-03-24T06:13:53.713Z,16.50
2023-03-24T06:16:25.312Z,16.50
2023-03-24T06:18:54.812Z,16.50
2023-03-24T06:21:33.100Z,16.50
2023-03-24T06:24:04.188Z,16.50
2023-03-24T06:26:32.550Z,16.50
2023-03-24T06:29:02.448Z,16.50
2023-03-24T06:31:30.912Z,16.50
2023-03-24T06:33:59.434Z,16.50
2023-03-24T06:36:27.777Z,16.50
2023-03-24T06:38:56.398Z,16.50
2023-03-24T06:41:25.159Z,16.60
2023-03-24T06:43:53.435Z,16.60
2023-03-24T06:46:23.182Z,16.60
2023-03-24T06:48:51.822Z,16.60
2023-03-24T06:51:20.167Z,16.60
2023-03-24T06:53:48.565Z,16.60
2023-03-24T06:56:18.425Z,16.60
2023-03-24T06:58:47.044Z,16.60
2023-03-24T07:01:16.118Z,16.70
2023-03-24T07:03:46.062Z,16.70
2023-03-24T07:06:14.556Z,16.70
2023-03-24T07:08:42.836Z,16.70
2023-03-24T07:11:11.288Z,16.70
2023-03-24T07:13:39.795Z,16.80
2023-03-24T07:16:09.097Z,16.80
2023-03-24T07:18:37.559Z,16.70
2023-03-24T07:21:07.777Z,16.80
2023-03-24T07:23:36.310Z,16.80
2023-03-24T07:26:04.603Z,16.80
2023-03-24T07:28:32.903Z,16.80
2023-03-24T07:31:04.527Z,16.80
2023-03-24T07:33:33.126Z,16.80
2023-03-24T07:36:01.463Z,16.80
2023-03-24T07:38:31.302Z,16.80
2023-03-24T07:41:00.547Z,16.90
2023-03-24T07:43:29.007Z,16.90
2023-03-24T07:45:57.386Z,16.90
2023-03-24T07:48:25.749Z,16.80
2023-03-24T07:50:55.055Z,16.80
2023-03-24T07:53:23.489Z,16.80
2023-03-24T07:55:53.420Z,16.80
2023-03-24T07:58:21.860Z,16.80
2023-03-24T08:00:50.353Z,16.80
2023-03-24T08:03:19.098Z,16.80
2023-03-24T08:05:47.643Z,16.80
2023-03-24T08:08:16.714Z,16.70
2023-03-24T08:10:46.142Z,16.80
2023-03-24T08:13:16.233Z,16.80
2023-03-24T08:15:44.547Z,16.80
2023-03-24T08:18:13.103Z,16.80
2023-03-24T08:20:41.533Z,16.80
2023-03-24T08:23:10.425Z,16.80
2023-03-24T08:25:38.788Z,16.90
2023-03-24T08:28:07.536Z,16.90
2023-03-24T08:30:37.513Z,16.90
2023-03-24T08:33:06.275Z,16.90
2023-03-24T08:35:38.911Z,16.90
2023-03-24T08:38:08.468Z,17.00
2023-03-24T08:40:38.822Z,17.00
2023-03-24T08:43:09.479Z,17.00
2023-03-24T08:45:39.841Z,17.00
2023-03-24T08:48:09.569Z,17.00
2023-03-24T08:50:39.615Z,17.00
2023-03-24T08:53:08.745Z,17.00
2023-03-24T08:55:41.763Z,17.00
2023-03-24T08:58:10.903Z,17.00
2023-03-24T09:00:41.666Z,16.90
2023-03-24T09:03:14.784Z,17.00
2023-03-24T09:05:44.740Z,17.00
2023-03-24T09:08:14.248Z,17.00
2023-03-24T09:10:43.343Z,17.00
2023-03-24T09:13:11.744Z,17.00
2023-03-24T09:15:42.226Z,17.00
2023-03-24T09:18:10.588Z,17.00
2023-03-24T09:20:38.891Z,17.00
2023-03-24T09:23:07.225Z,17.10
2023-03-24T09:25:35.656Z,17.10
2023-03-24T09:28:04.155Z,17.10
2023-03-24T09:30:34.662Z,17.20
2023-03-24T09:33:05.229Z,17.20
2023-03-24T09:35:33.730Z,17.20
2023-03-24T09:38:02.136Z,17.20
2023-03-24T09:40:32.851Z,17.20
2023-03-24T09:43:05.358Z,17.30
2023-03-24T09:45:38.774Z,17.30
2023-03-24T09:48:13.797Z,17.30
2023-03-24T09:50:50.856Z,17.30
2023-03-24T09:53:28.950Z,17.30
2023-03-24T09:55:59.078Z,17.30
2023-03-24T09:58:33.751Z,17.30
2023-03-24T10:01:02.302Z,17.40
2023-03-24T10:03:32.264Z,17.30
2023-03-24T10:06:06.777Z,17.40
2023-03-24T10:08:38.592Z,17.30
2023-03-24T10:11:10.600Z,17.30
2023-03-24T10:13:52.928Z,17.30
2023-03-24T10:16:29.059Z,17.40
2023-03-24T10:19:05.381Z,17.50
2023-03-24T10:21:39.038Z,17.50
2023-03-24T10:24:14.446Z,17.60
2023-03-24T10:26:50.617Z,17.70
2023-03-24T10:29:26.389Z,17.70
2023-03-24T10:32:00.376Z,17.70
2023-03-24T10:34:33.083Z,17.80
2023-03-24T10:37:03.520Z,17.90
2023-03-24T10:39:43.968Z,17.90
2023-03-24T10:42:18.731Z,17.90
2023-03-24T10:44:49.057Z,18.00
2023-03-24T10:47:21.721Z,18.10
2023-03-24T10:50:14.521Z,18.20
2023-03-24T10:52:45.548Z,18.30
2023-03-24T10:55:19.310Z,18.40
2023-03-24T10:57:50.878Z,18.40
2023-03-24T11:00:26.591Z,18.50
2023-03-24T11:02:58.923Z,18.60
2023-03-24T11:05:35.198Z,18.70
2023-03-24T11:08:19.903Z,18.80
2023-03-24T11:10:48.286Z,18.90
2023-03-24T11:13:20.212Z,18.90
2023-03-24T11:15:58.076Z,19.00
2023-03-24T11:18:26.452Z,19.20
2023-03-24T11:21:00.997Z,19.20
2023-03-24T11:23:32.628Z,19.40
2023-03-24T11:26:09.449Z,19.40
2023-03-24T11:28:41.631Z,19.30
2023-03-24T11:31:11.869Z,19.30
2023-03-24T11:33:46.684Z,19.20
2023-03-24T11:36:54.593Z,19.20
2023-03-24T11:39:26.391Z,19.10
2023-03-24T11:42:07.509Z,19.10
2023-03-24T11:44:47.293Z,19.20
2023-03-24T11:47:22.692Z,19.20
2023-03-24T11:49:58.243Z,19.20
2023-03-24T11:52:30.580Z,19.30
2023-03-24T11:55:00.367Z,19.40
2023-03-24T11:57:42.215Z,19.70
2023-03-24T12:00:21.400Z,20.00
2023-03-24T12:03:17.708Z,20.30
2023-03-24T12:05:53.624Z,20.60
2023-03-24T12:08:36.501Z,20.90
2023-03-24T12:11:19.367Z,21.30
2023-03-24T12:13:51.592Z,21.60
2023-03-24T12:16:41.886Z,21.90
2023-03-24T12:19:27.590Z,22.30
2023-03-24T12:22:05.878Z,22.70
2023-03-24T12:24:48.694Z,23.00
2023-03-24T12:27:27.722Z,23.30
2023-03-24T12:30:02.285Z,23.50
2023-03-24T12:33:01.439Z,23.80
2023-03-24T12:35:43.347Z,24.00
2023-03-24T12:38:35.814Z,24.30
2023-03-24T12:41:29.056Z,24.50
2023-03-24T12:44:29.414Z,24.70
2023-03-24T12:47:08.306Z,24.80
2023-03-24T12:49:53.034Z,25.00
2023-03-24T12:53:06.639Z,25.20
2023-03-24T12:55:42.675Z,25.40
2023-03-24T12:58:16.287Z,25.50
2023-03-24T13:00:52.511Z,25.40
2023-03-24T13:03:26.900Z,25.30
2023-03-24T13:06:07.403Z,25.20
2023-03-24T13:08:49.495Z,25.20
2023-03-24T13:11:32.313Z,25.00
2023-03-24T13:14:04.787Z,24.90
2023-03-24T13:16:37.297Z,24.60
2023-03-24T13:19:13.953Z,24.40
2023-03-24T13:21:43.103Z,24.10
2023-03-24T13:24:15.256Z,24.20
2023-03-24T13:26:51.976Z,24.70
2023-03-24T13:29:41.948Z,25.30
2023-03-24T13:32:28.567Z,25.90
2023-03-24T13:35:02.931Z,26.30
2023-03-24T13:37:35.960Z,26.60
2023-03-24T13:40:11.071Z,26.80
2023-03-24T13:42:45.114Z,27.10
2023-03-24T13:45:25.544Z,27.20
2023-03-24T13:48:06.844Z,27.20
2023-03-24T13:50:38.394Z,26.90
2023-03-24T13:53:12.806Z,26.70
2023-03-24T13:55:46.832Z,26.80
2023-03-24T13:58:21.484Z,27.20
2023-03-24T14:01:17.557Z,27.40
2023-03-24T14:04:08.589Z,27.60
2023-03-24T14:06:48.296Z,27.70
2023-03-24T14:09:21.302Z,28.00
2023-03-24T14:12:21.433Z,27.90
2023-03-24T14:15:18.605Z,27.80
2023-03-24T14:17:48.992Z,27.80
2023-03-24T14:20:34.920Z,27.70
2023-03-24T14:23:05.004Z,28.00
2023-03-24T14:25:34.393Z,28.30
2023-03-24T14:28:20.565Z,28.50
2023-03-24T14:31:20.639Z,28.30
2023-03-24T14:34:03.190Z,28.00
2023-03-24T14:36:39.475Z,28.00
2023-03-24T14:39:13.765Z,27.80
2023-03-24T14:41:44.417Z,27.70
2023-03-24T14:44:12.959Z,27.50
2023-03-24T14:46:44.559Z,27.10
2023-03-24T14:49:23.852Z,26.80
2023-03-24T14:52:04.636Z,26.80
2023-03-24T14:54:38.995Z,27.00
2023-03-24T14:57:09.778Z,27.30
2023-03-24T14:59:47.085Z,27.60
2023-03-24T15:02:26.450Z,28.10
2023-03-24T15:05:23.116Z,28.50
2023-03-24T15:08:15.813Z,28.90
2023-03-24T15:10:49.788Z,29.20
2023-03-24T15:13:37.142Z,29.30
2023-03-24T15:16:09.187Z,29.50
2023-03-24T15:18:57.769Z,29.60
2023-03-24T15:21:33.342Z,29.60
2023-03-24T15:24:04.522Z,29.70
2023-03-24T15:26:33.744Z,29.80
2023-03-24T15:29:04.218Z,29.90
2023-03-24T15:31:33.569Z,29.90
2023-03-24T15:34:07.629Z,29.80
2023-03-24T15:36:40.880Z,29.60
2023-03-24T15:39:22.184Z,29.60
2023-03-24T15:41:53.825Z,29.50
2023-03-24T15:44:25.381Z,29.30
2023-03-24T15:46:57.496Z,29.00
2023-03-24T15:49:28.447Z,28.80
2023-03-24T15:51:59.978Z,28.60
2023-03-24T15:54:32.510Z,28.30
2023-03-24T15:57:19.457Z,27.80
2023-03-24T15:59:49.727Z,27.30
2023-03-24T16:02:33.512Z,27.00
2023-03-24T16:07:37.818Z,26.40
2023-03-24T16:10:09.812Z,26.10
2023-03-24T16:12:38.926Z,26.00
2023-03-24T16:15:08.395Z,25.70
2023-03-24T16:17:36.768Z,25.50
2023-03-24T16:20:08.975Z,25.30
2023-03-24T16:22:37.332Z,25.00
2023-03-24T16:25:08.133Z,24.90
2023-03-24T16:27:37.859Z,24.80
2023-03-24T16:30:19.132Z,24.60
2023-03-24T16:32:47.476Z,24.50
2023-03-24T16:35:16.165Z,24.40
2023-03-24T16:37:44.721Z,24.20
2023-03-24T16:40:23.205Z,24.00
2023-03-24T16:42:51.517Z,23.90
2023-03-24T16:45:20.179Z,23.80
2023-03-24T16:47:48.579Z,23.70
2023-03-24T16:50:29.644Z,23.60
2023-03-24T16:52:58.061Z,23.50
2023-03-24T16:55:27.823Z,23.40
2023-03-24T16:57:56.200Z,23.30
2023-03-24T17:00:24.959Z,23.20
2023-03-24T17:02:53.973Z,23.00
2023-03-24T17:05:25.815Z,23.00
2023-03-24T17:07:54.576Z,22.90
2023-03-24T17:10:23.684Z,22.90
2023-03-24T17:12:55.597Z,22.70
2023-03-24T17:15:25.693Z,22.70
2023-03-24T17:17:54.346Z,22.60
2023-03-24T17:20:24.508Z,22.50
2023-03-24T17:22:56.753Z,22.50
2023-03-24T17:25:29.328Z,22.40
2023-03-24T17:27:59.052Z,22.30
2023-03-24T17:30:29.495Z,22.20
2023-03-24T17:32:58.352Z,22.20
2023-03-24T17:35:26.991Z,22.10
2023-03-24T17:37:55.357Z,22.00
2023-03-24T17:40:23.731Z,22.00
2023-03-24T17:42:52.047Z,21.90
2023-03-24T17:45:22.220Z,21.80
2023-03-24T17:47:50.733Z,21.70
2023-03-24T17:50:19.595Z,21.70
2023-03-24T17:52:49.141Z,21.60
2023-03-24T17:55:18.977Z,21.60
2023-03-24T17:57:47.432Z,21.50
2023-03-24T18:00:17.512Z,21.50
2023-03-24T18:02:47.442Z,21.40
2023-03-24T18:05:16.092Z,21.30
2023-03-24T18:07:44.503Z,21.30
2023-03-24T18:10:13.961Z,21.30
2023-03-24T18:12:42.399Z,21.20
2023-03-24T18:15:11.710Z,21.20
2023-03-24T18:17:40.458Z,21.10
2023-03-24T18:20:12.305Z,21.00
2023-03-24T18:22:41.178Z,21.00
2023-03-24T18:25:11.208Z,21.00
2023-03-24T18:27:40.078Z,20.90
2023-03-24T18:30:11.115Z,20.90
2023-03-24T18:32:40.017Z,20.90
2023-03-24T18:35:16.260Z,20.80
2023-03-24T18:37:45.599Z,20.80
2023-03-24T18:40:15.835Z,20.80
2023-03-24T18:42:44.256Z,20.70
2023-03-24T18:45:17.581Z,20.70
2023-03-24T18:47:46.721Z,20.70
2023-03-24T18:50:17.114Z,20.60
2023-03-24T18:52:46.031Z,20.60
2023-03-24T18:55:15.968Z,20.60
2023-03-24T18:57:44.329Z,20.50
2023-03-24T19:00:15.087Z,20.50
2023-03-24T19:02:43.691Z,20.50
2023-03-24T19:05:14.265Z,20.50
2023-03-24T19:07:46.016Z,20.40
2023-03-24T19:10:14.681Z,20.40
2023-03-24T19:12:43.222Z,20.40
2023-03-24T19:15:13.719Z,20.40
2023-03-24T19:17:42.188Z,20.30
2023-03-24T19:20:11.743Z,20.30
2023-03-24T19:22:41.697Z,20.20
2023-03-24T19:25:11.536Z,20.20
2023-03-24T19:27:39.863Z,20.20
2023-03-24T19:30:09.500Z,20.10
2023-03-24T19:32:37.991Z,20.10
2023-03-24T19:35:08.324Z,20.10
2023-03-24T19:37:37.779Z,20.00
2023-03-24T19:40:08.148Z,20.00
2023-03-24T19:42:40.489Z,20.00
2023-03-24T19:45:10.135Z,20.00
2023-03-24T19:47:38.868Z,19.90
2023-03-24T19:50:09.155Z,19.90
2023-03-24T19:52:38.319Z,19.90
2023-03-24T19:55:08.073Z,19.90
2023-03-24T19:57:38.157Z,19.80
2023-03-24T20:00:10.238Z,19.80
2023-03-24T20:02:39.313Z,19.80
2023-03-24T20:05:09.356Z,19.70
2023-03-24T20:07:37.809Z,19.70
2023-03-24T20:10:07.381Z,19.70
2023-03-24T20:12:37.125Z,19.70
2023-03-24T20:15:07.070Z,19.60
2023-03-24T20:17:37.700Z,19.70
2023-03-24T20:20:08.202Z,19.60
2023-03-24T20:22:36.758Z,19.60
2023-03-24T20:25:05.889Z,19.60
2023-03-24T20:27:34.370Z,19.60
2023-03-24T20:30:04.944Z,19.50
2023-03-24T20:32:33.943Z,19.50
2023-03-24T20:35:02.443Z,19.50
2023-03-24T20:37:31.588Z,19.50
2023-03-24T20:40:00.335Z,19.40
2023-03-24T20:42:28.985Z,19.40
2023-03-24T20:44:57.444Z,19.40
2023-03-24T20:47:28.631Z,19.40
2023-03-24T20:49:57.578Z,19.40
2023-03-24T20:52:27.288Z,19.30
2023-03-24T20:54:57.076Z,19.30
2023-03-24T20:57:27.741Z,19.30
2023-03-24T20:59:57.366Z,19.20
2023-03-24T21:02:27.630Z,19.30
2023-03-24T21:04:56.470Z,19.20
2023-03-24T21:07:25.989Z,19.20
2023-03-24T21:09:54.522Z,19.10
2023-03-24T21:12:23.887Z,19.20
2023-03-24T21:14:52.882Z,19.10
2023-03-24T21:17:23.018Z,19.10
2023-03-24T21:19:55.088Z,19.20
2023-03-24T21:22:37.793Z,19.10
2023-03-24T21:25:07.968Z,19.10
2023-03-24T21:27:37.461Z,19.10
2023-03-24T21:30:08.278Z,19.00
2023-03-24T21:32:38.980Z,19.00
2023-03-24T21:35:11.898Z,19.00
2023-03-24T21:37:45.649Z,19.00
2023-03-24T21:40:17.184Z,19.00
2023-03-24T21:42:49.744Z,19.00
2023-03-24T21:45:20.584Z,19.00
2023-03-24T21:47:50.356Z,19.00
2023-03-24T21:50:23.230Z,19.00
2023-03-24T21:52:52.650Z,19.00
2023-03-24T21:55:22.771Z,19.00
2023-03-24T21:57:52.330Z,19.00
2023-03-24T22:00:23.322Z,19.00
2023-03-24T22:02:53.713Z,19.00
2023-03-24T22:05:25.168Z,18.90
2023-03-24T22:07:56.866Z,18.90
2023-03-24T22:10:30.073Z,19.00
2023-03-24T22:12:58.709Z,19.00
2023-03-24T22:15:27.237Z,18.90
2023-03-24T22:17:55.865Z,18.90
2023-03-24T22:20:28.346Z,18.90
2023-03-24T22:22:56.737Z,18.80
2023-03-24T22:25:25.994Z,18.80
2023-03-24T22:27:56.277Z,18.80
2023-03-24T22:30:24.997Z,18.80
2023-03-24T22:32:53.397Z,18.80
2023-03-24T22:35:23.347Z,18.80
2023-03-24T22:37:53.288Z,18.70
2023-03-24T22:40:22.078Z,18.70
2023-03-24T22:42:51.248Z,18.70
2023-03-24T22:45:19.830Z,18.70
2023-03-24T22:47:48.283Z,18.70
2023-03-24T22:50:17.397Z,18.70
2023-03-24T22:52:45.738Z,18.60
2023-03-24T22:55:15.776Z,18.60
2023-03-24T22:57:44.270Z,18.60
2023-03-24T23:00:13.505Z,18.60
2023-03-24T23:02:42.176Z,18.50
2023-03-24T23:05:12.319Z,18.50
2023-03-24T23:07:42.209Z,18.50
2023-03-24T23:10:11.677Z,18.50
2023-03-24T23:12:42.787Z,18.50
2023-03-24T23:15:14.786Z,18.40
2023-03-24T23:17:43.761Z,18.40
2023-03-24T23:20:14.929Z,18.40
2023-03-24T23:22:43.344Z,18.40
2023-03-24T23:25:13.569Z,18.40
2023-03-24T23:27:43.672Z,18.40
2023-03-24T23:30:14.350Z,18.40
2023-03-24T23:32:43.844Z,18.30
2023-03-24T23:35:12.848Z,18.30
2023-03-24T23:37:41.692Z,18.30
2023-03-24T23:40:13.121Z,18.20
2023-03-24T23:42:44.529Z,18.20
2023-03-24T23:45:15.204Z,18.20
2023-03-24T23:47:44.394Z,18.20
2023-03-24T23:50:14.159Z,18.10
2023-03-24T23:52:44.186Z,18.10
2023-03-24T23:55:13.338Z,18.10
2023-03-24T23:57:43.923Z,18.10
